createdAt,value
2022-07-30T00:02:11.761Z,11.00
2022-07-30T00:04:41.113Z,7.32
2022-07-30T00:07:09.604Z,9.55
2022-07-30T00:09:37.548Z,12.65
2022-07-30T00:12:05.926Z,11.95
2022-07-30T00:14:35.121Z,7.43
2022-07-30T00:17:04.112Z,11.73
2022-07-30T00:19:32.446Z,9.18
2022-07-30T00:22:01.782Z,10.73
2022-07-30T00:24:29.817Z,13.35
2022-07-30T00:26:57.845Z,11.07
2022-07-30T00:29:26.812Z,9.18
2022-07-30T00:31:54.743Z,8.32
2022-07-30T00:34:22.814Z,8.35
2022-07-30T00:36:50.837Z,9.02
2022-07-30T00:39:20.088Z,10.15
2022-07-30T00:41:56.011Z,11.80
2022-07-30T00:44:24.179Z,10.00
2022-07-30T00:46:52.424Z,9.80
2022-07-30T00:49:21.096Z,8.95
2022-07-30T00:51:49.363Z,9.57
2022-07-30T00:54:19.097Z,11.60
2022-07-30T00:56:48.075Z,8.88
2022-07-30T00:59:16.326Z,8.40
2022-07-30T01:01:44.577Z,7.97
2022-07-30T01:04:12.659Z,8.75
2022-07-30T01:06:41.511Z,8.70
2022-07-30T01:09:10.070Z,9.68
2022-07-30T01:11:42.668Z,8.57
2022-07-30T01:14:11.271Z,10.23
2022-07-30T01:16:41.746Z,11.85
2022-07-30T01:19:32.858Z,9.68
2022-07-30T01:22:08.143Z,9.40
2022-07-30T01:24:39.727Z,8.95
2022-07-30T01:27:09.791Z,8.98
2022-07-30T01:29:40.589Z,8.93
2022-07-30T01:32:09.919Z,8.48
2022-07-30T01:34:38.962Z,9.63
2022-07-30T01:37:10.712Z,8.00
2022-07-30T01:39:39.984Z,11.60
2022-07-30T01:42:11.742Z,11.80
2022-07-30T01:44:41.990Z,11.50
2022-07-30T01:47:13.020Z,10.50
2022-07-30T01:49:42.498Z,9.95
2022-07-30T01:52:11.871Z,10.32
2022-07-30T01:54:41.746Z,9.70
2022-07-30T01:57:11.633Z,12.93
2022-07-30T01:59:41.565Z,11.68
2022-07-30T02:02:09.635Z,9.17
2022-07-30T02:04:37.682Z,10.20
2022-07-30T02:07:15.894Z,10.60
2022-07-30T02:09:52.834Z,10.07
2022-07-30T02:12:29.819Z,9.23
2022-07-30T02:15:08.206Z,11.87
2022-07-30T02:17:45.261Z,14.30
2022-07-30T02:20:16.191Z,8.93
2022-07-30T02:22:48.383Z,9.57
2022-07-30T02:25:21.391Z,10.43
2022-07-30T02:27:54.039Z,10.43
2022-07-30T02:30:26.880Z,11.97
2022-07-30T02:33:00.435Z,11.37
2022-07-30T02:35:31.678Z,12.63
2022-07-30T02:38:02.216Z,9.80
2022-07-30T02:40:30.345Z,10.40
2022-07-30T02:43:01.905Z,10.70
2022-07-30T02:45:31.888Z,16.10
2022-07-30T02:48:03.260Z,13.07
2022-07-30T02:50:33.021Z,12.23
2022-07-30T02:53:02.481Z,10.70
2022-07-30T02:55:33.715Z,11.00
2022-07-30T02:58:05.219Z,12.77
2022-07-30T03:00:34.785Z,15.00
2022-07-30T03:03:06.313Z,10.60
2022-07-30T03:05:35.428Z,10.10
2022-07-30T03:08:04.698Z,11.30
2022-07-30T03:10:33.895Z,10.23
2022-07-30T03:13:05.521Z,11.40
2022-07-30T03:15:35.136Z,12.60
2022-07-30T03:18:08.959Z,12.13
2022-07-30T03:20:38.436Z,10.97
2022-07-30T03:23:08.203Z,9.83
2022-07-30T03:25:37.712Z,11.03
2022-07-30T03:28:09.193Z,13.17
2022-07-30T03:30:37.714Z,10.87
2022-07-30T03:33:07.020Z,11.20
2022-07-30T03:35:35.854Z,13.03
2022-07-30T03:38:06.457Z,13.27
2022-07-30T03:40:35.371Z,11.23
2022-07-30T03:43:03.763Z,11.90
2022-07-30T03:45:33.949Z,13.53
2022-07-30T03:48:02.628Z,12.63
2022-07-30T03:50:31.469Z,10.87
2022-07-30T03:52:59.555Z,12.53
2022-07-30T03:55:28.154Z,13.40
2022-07-30T03:57:56.420Z,13.83
2022-07-30T04:00:24.766Z,11.90
2022-07-30T04:02:54.849Z,13.47
2022-07-30T04:05:23.315Z,15.27
2022-07-30T04:07:51.221Z,14.60
2022-07-30T04:10:19.878Z,12.53
2022-07-30T04:12:47.838Z,10.77
2022-07-30T04:16:40.169Z,14.23
2022-07-30T04:18:10.295Z,12.33
2022-07-30T04:20:43.001Z,12.07
2022-07-30T04:23:13.163Z,14.63
2022-07-30T04:25:43.589Z,12.20
2022-07-30T04:28:13.113Z,15.10
2022-07-30T04:30:42.203Z,11.67
2022-07-30T04:33:11.618Z,11.13
2022-07-30T04:35:50.738Z,11.43
2022-07-30T04:38:20.195Z,12.80
2022-07-30T04:40:48.426Z,14.60
2022-07-30T04:43:16.625Z,12.93
2022-07-30T04:45:44.950Z,11.20
2022-07-30T04:48:14.409Z,11.13
2022-07-30T04:50:44.420Z,12.40
2022-07-30T04:53:12.992Z,15.73
2022-07-30T04:55:44.232Z,24.97
2022-07-30T04:58:14.938Z,20.03
2022-07-30T05:00:44.486Z,14.00
2022-07-30T05:03:15.699Z,16.57
2022-07-30T05:05:45.687Z,18.43
2022-07-30T05:08:14.244Z,24.73
2022-07-30T05:10:42.208Z,20.30
2022-07-30T05:13:13.131Z,21.10
2022-07-30T05:15:41.298Z,21.33
2022-07-30T05:18:09.850Z,26.70
2022-07-30T05:20:39.443Z,33.70
2022-07-30T05:23:07.555Z,37.33
2022-07-30T05:25:35.672Z,40.77
2022-07-30T05:28:06.618Z,50.07
2022-07-30T05:30:34.613Z,57.50
2022-07-30T05:33:03.720Z,78.27
2022-07-30T05:35:41.042Z,61.50
2022-07-30T05:38:09.172Z,92.60
2022-07-30T05:40:37.098Z,98.13
2022-07-30T05:43:05.459Z,96.77
2022-07-30T05:45:33.684Z,108.83
2022-07-30T05:48:01.968Z,121.67
2022-07-30T05:50:29.988Z,131.43
2022-07-30T05:52:59.593Z,108.60
2022-07-30T05:55:27.496Z,113.73
2022-07-30T05:57:55.453Z,117.30
2022-07-30T06:00:23.375Z,124.37
2022-07-30T06:02:51.630Z,125.20
2022-07-30T06:05:19.939Z,108.97
2022-07-30T06:07:48.155Z,70.30
2022-07-30T06:10:17.678Z,77.13
2022-07-30T06:12:45.735Z,66.00
2022-07-30T06:15:14.003Z,48.30
2022-07-30T06:17:53.226Z,47.20
2022-07-30T06:20:29.656Z,40.70
2022-07-30T06:22:57.607Z,40.80
2022-07-30T06:25:27.518Z,40.43
2022-07-30T06:27:55.386Z,39.50
2022-07-30T06:30:31.148Z,41.97
2022-07-30T06:32:59.573Z,43.60
2022-07-30T06:35:27.434Z,56.77
2022-07-30T06:38:06.864Z,52.73
2022-07-30T06:40:37.374Z,52.67
2022-07-30T06:43:05.337Z,52.43
2022-07-30T06:45:33.152Z,50.50
2022-07-30T06:48:01.322Z,51.33
2022-07-30T06:50:29.883Z,47.40
2022-07-30T06:52:57.912Z,45.83
2022-07-30T06:55:25.949Z,55.60
2022-07-30T06:57:55.250Z,49.60
2022-07-30T07:00:23.300Z,46.42
2022-07-30T07:02:51.477Z,50.17
2022-07-30T07:05:20.598Z,50.90
2022-07-30T07:07:58.269Z,56.55
2022-07-30T07:10:27.404Z,47.63
2022-07-30T07:12:57.147Z,44.53
2022-07-30T07:15:36.337Z,39.63
2022-07-30T07:18:06.527Z,46.80
2022-07-30T07:20:35.243Z,52.15
2022-07-30T07:23:09.405Z,51.38
2022-07-30T07:25:40.784Z,51.20
2022-07-30T07:28:12.145Z,42.20
2022-07-30T07:30:43.292Z,33.60
2022-07-30T07:33:12.620Z,28.95
2022-07-30T07:35:49.382Z,28.40
2022-07-30T07:38:18.617Z,33.08
2022-07-30T07:40:47.211Z,36.53
2022-07-30T07:43:17.158Z,30.38
2022-07-30T07:45:48.460Z,25.73
2022-07-30T07:48:16.407Z,24.98
2022-07-30T07:50:44.421Z,19.63
2022-07-30T07:53:12.898Z,21.73
2022-07-30T07:55:40.874Z,17.63
2022-07-30T07:58:11.517Z,19.67
2022-07-30T08:00:43.382Z,19.83
2022-07-30T08:03:11.969Z,17.02
2022-07-30T08:06:02.024Z,16.05
2022-07-30T08:08:27.816Z,16.05
2022-07-30T08:10:55.789Z,15.32
2022-07-30T08:13:48.971Z,17.98
2022-07-30T08:16:14.658Z,16.45
2022-07-30T08:18:42.612Z,14.52
2022-07-30T08:21:10.770Z,11.93
2022-07-30T08:23:42.510Z,11.70
2022-07-30T08:26:11.153Z,11.77
2022-07-30T08:28:39.191Z,16.58
2022-07-30T08:31:07.290Z,14.75
2022-07-30T08:33:36.873Z,12.45
2022-07-30T08:36:09.694Z,16.08
2022-07-30T08:38:38.616Z,11.73
2022-07-30T08:41:07.538Z,8.82
2022-07-30T08:43:37.240Z,12.77
2022-07-30T08:46:08.838Z,12.88
2022-07-30T08:48:38.852Z,17.05
2022-07-30T08:51:07.215Z,13.30
2022-07-30T08:53:35.506Z,12.27
2022-07-30T08:56:04.829Z,13.30
2022-07-30T08:58:37.206Z,11.35
2022-07-30T09:01:07.336Z,19.30
2022-07-30T09:03:43.977Z,13.52
2022-07-30T09:06:13.245Z,15.23
2022-07-30T09:08:42.094Z,16.33
2022-07-30T09:11:10.180Z,13.13
2022-07-30T09:13:42.708Z,11.93
2022-07-30T09:16:21.280Z,9.27
2022-07-30T09:18:51.437Z,11.85
2022-07-30T09:21:23.446Z,11.73
2022-07-30T09:23:59.590Z,10.80
2022-07-30T09:26:27.717Z,13.93
2022-07-30T09:28:56.056Z,11.77
2022-07-30T09:31:24.557Z,11.43
2022-07-30T09:33:54.166Z,12.25
2022-07-30T09:36:22.169Z,10.80
2022-07-30T09:38:52.207Z,20.10
2022-07-30T09:41:39.220Z,7.97
2022-07-30T09:44:08.145Z,11.45
2022-07-30T09:46:43.457Z,14.07
2022-07-30T09:49:20.353Z,8.82
2022-07-30T09:51:55.671Z,9.98
2022-07-30T09:54:25.979Z,9.70
2022-07-30T09:57:23.238Z,12.38
2022-07-30T09:59:55.449Z,11.43
2022-07-30T10:02:31.913Z,6.18
2022-07-30T10:05:14.595Z,9.88
2022-07-30T10:07:51.131Z,7.50
2022-07-30T10:10:25.331Z,9.20
2022-07-30T10:12:58.111Z,6.70
2022-07-30T10:15:30.889Z,8.13
2022-07-30T10:18:01.515Z,6.88
2022-07-30T10:20:31.193Z,5.72
2022-07-30T10:23:08.105Z,6.82
2022-07-30T10:25:48.836Z,8.00
2022-07-30T10:28:23.255Z,6.78
2022-07-30T10:30:52.765Z,8.20
2022-07-30T10:33:36.664Z,5.97
2022-07-30T10:36:11.947Z,6.28
2022-07-30T10:38:43.078Z,4.63
2022-07-30T10:41:22.271Z,6.18
2022-07-30T10:44:26.302Z,6.05
2022-07-30T10:47:07.090Z,9.65
2022-07-30T10:49:41.357Z,3.58
2022-07-30T10:52:13.064Z,5.47
2022-07-30T10:54:44.451Z,4.60
2022-07-30T10:57:32.420Z,3.60
2022-07-30T11:00:12.120Z,3.30
2022-07-30T11:03:01.584Z,6.38
2022-07-30T11:05:45.560Z,6.70
2022-07-30T11:08:36.135Z,3.05
2022-07-30T11:11:19.878Z,4.22
2022-07-30T11:13:58.442Z,4.28
2022-07-30T11:16:59.800Z,4.13
2022-07-30T11:19:55.675Z,5.32
2022-07-30T11:22:31.662Z,7.68
2022-07-30T11:25:06.618Z,8.35
2022-07-30T11:27:42.352Z,4.18
2022-07-30T11:30:34.970Z,3.75
2022-07-30T11:33:33.210Z,4.38
2022-07-30T11:36:10.571Z,6.53
2022-07-30T11:39:06.712Z,3.60
2022-07-30T11:41:36.552Z,3.17
2022-07-30T11:44:27.098Z,3.97
2022-07-30T11:46:55.327Z,5.05
2022-07-30T11:49:23.511Z,4.65
2022-07-30T11:51:52.077Z,3.97
2022-07-30T11:54:20.148Z,4.95
2022-07-30T11:56:55.208Z,7.07
2022-07-30T11:59:23.196Z,4.82
2022-07-30T12:01:52.688Z,5.53
2022-07-30T12:04:21.052Z,5.05
2022-07-30T12:06:50.043Z,8.35
2022-07-30T12:09:28.687Z,3.55
2022-07-30T12:11:59.051Z,4.68
2022-07-30T12:14:38.536Z,4.57
2022-07-30T12:17:06.492Z,5.10
2022-07-30T12:19:47.791Z,6.00
2022-07-30T12:22:16.554Z,8.10
2022-07-30T12:24:44.563Z,3.25
2022-07-30T12:27:14.223Z,3.92
2022-07-30T12:29:42.447Z,4.72
2022-07-30T12:32:11.228Z,4.18
2022-07-30T12:34:39.194Z,3.30
2022-07-30T12:37:10.918Z,4.97
2022-07-30T12:39:40.470Z,5.88
2022-07-30T12:42:08.722Z,4.57
2022-07-30T12:44:39.822Z,8.13
2022-07-30T12:47:20.027Z,3.85
2022-07-30T12:49:49.587Z,4.65
2022-07-30T12:52:27.809Z,4.70
2022-07-30T12:55:02.827Z,5.78
2022-07-30T12:57:57.612Z,4.15
2022-07-30T13:00:29.706Z,4.90
2022-07-30T13:02:58.679Z,4.32
2022-07-30T13:05:45.934Z,3.50
2022-07-30T13:08:13.952Z,3.88
2022-07-30T13:10:55.743Z,4.75
2022-07-30T13:13:23.835Z,4.38
2022-07-30T13:16:01.441Z,5.38
2022-07-30T13:18:30.172Z,3.17
2022-07-30T13:20:58.265Z,4.38
2022-07-30T13:23:26.675Z,3.72
2022-07-30T13:25:55.237Z,3.53
2022-07-30T13:28:25.390Z,3.83
2022-07-30T13:30:53.637Z,4.15
2022-07-30T13:33:23.064Z,4.78
2022-07-30T13:35:51.035Z,4.05
2022-07-30T13:38:18.924Z,3.80
2022-07-30T13:40:46.911Z,4.10
2022-07-30T13:43:15.312Z,2.50
2022-07-30T13:45:46.296Z,5.22
2022-07-30T13:48:15.914Z,3.05
2022-07-30T13:50:45.723Z,3.40
2022-07-30T13:53:13.999Z,3.65
2022-07-30T13:55:42.725Z,6.07
2022-07-30T13:58:11.180Z,4.05
2022-07-30T14:00:40.371Z,4.05
2022-07-30T14:03:11.117Z,6.45
2022-07-30T14:05:42.506Z,3.63
2022-07-30T14:08:13.009Z,4.60
2022-07-30T14:10:41.627Z,3.17
2022-07-30T14:13:16.039Z,6.75
2022-07-30T14:15:49.073Z,2.90
2022-07-30T14:18:17.254Z,3.38
2022-07-30T14:20:48.566Z,4.10
2022-07-30T14:23:18.201Z,3.80
2022-07-30T14:25:46.152Z,6.60
2022-07-30T14:28:14.401Z,4.35
2022-07-30T14:30:42.302Z,4.22
2022-07-30T14:33:10.288Z,2.17
2022-07-30T14:35:38.253Z,3.15
2022-07-30T14:38:06.386Z,3.33
2022-07-30T14:40:35.618Z,2.55
2022-07-30T14:43:03.749Z,2.00
2022-07-30T14:45:36.545Z,2.72
2022-07-30T14:48:04.761Z,2.97
2022-07-30T14:50:32.800Z,4.25
2022-07-30T14:53:00.644Z,2.63
2022-07-30T14:55:28.648Z,4.10
2022-07-30T14:57:57.908Z,4.13
2022-07-30T15:00:25.911Z,1.83
2022-07-30T15:02:53.800Z,3.10
2022-07-30T15:05:21.950Z,11.75
2022-07-30T15:07:49.885Z,3.65
2022-07-30T15:10:17.793Z,2.72
2022-07-30T15:12:46.027Z,3.47
2022-07-30T15:15:17.373Z,1.77
2022-07-30T15:17:45.610Z,5.35
2022-07-30T15:20:14.383Z,2.03
2022-07-30T15:22:42.544Z,1.85
2022-07-30T15:25:10.577Z,3.75
2022-07-30T15:27:38.542Z,3.67
2022-07-30T15:30:07.293Z,2.10
2022-07-30T15:32:37.135Z,7.97
2022-07-30T15:35:08.394Z,2.38
2022-07-30T15:37:38.569Z,3.67
2022-07-30T15:40:07.289Z,5.35
2022-07-30T15:42:35.135Z,4.68
2022-07-30T15:45:19.110Z,2.25
2022-07-30T15:47:48.504Z,2.72
2022-07-30T15:50:17.252Z,5.65
2022-07-30T15:52:45.358Z,3.20
2022-07-30T15:55:13.487Z,5.55
2022-07-30T15:57:42.202Z,2.65
2022-07-30T16:00:12.772Z,3.95
2022-07-30T16:02:41.274Z,4.45
2022-07-30T16:05:14.155Z,3.53
2022-07-30T16:07:43.000Z,3.30
2022-07-30T16:10:11.479Z,3.08
2022-07-30T16:12:39.690Z,4.43
2022-07-30T16:15:10.825Z,3.42
2022-07-30T16:17:39.012Z,3.78
2022-07-30T16:20:07.913Z,6.22
2022-07-30T16:22:37.493Z,2.55
2022-07-30T16:25:06.368Z,3.33
2022-07-30T16:27:34.231Z,3.60
2022-07-30T16:30:02.997Z,5.25
2022-07-30T16:32:30.943Z,4.75
2022-07-30T16:34:58.828Z,3.65
2022-07-30T16:37:26.674Z,4.05
2022-07-30T16:39:55.954Z,5.32
2022-07-30T16:42:23.907Z,3.65
2022-07-30T16:44:51.902Z,3.92
2022-07-30T16:47:19.783Z,5.95
2022-07-30T16:49:47.654Z,5.18
2022-07-30T16:52:17.118Z,3.05
2022-07-30T16:54:44.948Z,2.97
2022-07-30T16:57:14.645Z,5.25
2022-07-30T16:59:43.675Z,4.07
2022-07-30T17:02:12.457Z,4.30
2022-07-30T17:04:41.476Z,3.40
2022-07-30T17:07:09.592Z,3.58
2022-07-30T17:09:37.734Z,3.92
2022-07-30T17:12:11.807Z,3.35
2022-07-30T17:14:42.034Z,3.65
2022-07-30T17:17:14.261Z,3.45
2022-07-30T17:19:42.768Z,2.90
2022-07-30T17:22:10.943Z,5.82
2022-07-30T17:24:38.844Z,5.80
2022-07-30T17:27:06.927Z,5.22
2022-07-30T17:29:34.977Z,2.97
2022-07-30T17:32:20.311Z,7.05
2022-07-30T17:34:48.340Z,5.38
2022-07-30T17:37:16.474Z,4.63
2022-07-30T17:40:19.758Z,4.10
2022-07-30T17:42:32.771Z,4.68
2022-07-30T17:45:01.298Z,2.47
2022-07-30T17:47:30.649Z,5.65
2022-07-30T17:49:58.546Z,4.10
2022-07-30T17:52:27.337Z,2.78
2022-07-30T17:54:55.503Z,4.15
2022-07-30T17:57:23.753Z,4.32
2022-07-30T17:59:51.563Z,3.28
2022-07-30T18:02:20.683Z,2.40
2022-07-30T18:04:57.881Z,2.30
2022-07-30T18:07:26.191Z,2.72
2022-07-30T18:09:54.144Z,4.53
2022-07-30T18:12:22.349Z,5.88
2022-07-30T18:14:50.644Z,4.30
2022-07-30T18:17:18.604Z,3.63
2022-07-30T18:19:46.753Z,5.38
2022-07-30T18:22:16.177Z,4.70
2022-07-30T18:24:56.174Z,3.03
2022-07-30T18:27:24.229Z,6.10
2022-07-30T18:29:53.399Z,6.50
2022-07-30T18:32:22.181Z,6.82
2022-07-30T18:34:50.243Z,3.28
2022-07-30T18:37:19.784Z,5.03
2022-07-30T18:39:47.907Z,3.53
2022-07-30T18:42:15.840Z,5.97
2022-07-30T18:44:43.847Z,3.22
2022-07-30T18:47:11.782Z,5.78
2022-07-30T18:49:39.836Z,7.18
2022-07-30T18:52:08.461Z,4.55
2022-07-30T18:54:39.165Z,5.03
2022-07-30T18:57:10.119Z,5.07
2022-07-30T18:59:42.898Z,5.13
2022-07-30T19:02:11.093Z,4.88
2022-07-30T19:04:39.171Z,5.82
2022-07-30T19:07:07.525Z,4.10
2022-07-30T19:09:35.625Z,3.33
2022-07-30T19:12:05.857Z,5.05
2022-07-30T19:14:34.019Z,5.68
2022-07-30T19:17:01.911Z,6.72
2022-07-30T19:19:30.961Z,2.70
2022-07-30T19:21:59.300Z,5.18
2022-07-30T19:24:27.771Z,7.88
2022-07-30T19:26:56.148Z,7.13
2022-07-30T19:29:25.459Z,3.95
2022-07-30T19:31:53.531Z,4.78
2022-07-30T19:34:25.617Z,3.15
2022-07-30T19:36:54.131Z,6.78
2022-07-30T19:39:22.386Z,3.38
2022-07-30T19:41:50.973Z,3.20
2022-07-30T19:44:19.489Z,3.47
2022-07-30T19:46:51.815Z,5.80
2022-07-30T19:49:21.652Z,3.50
2022-07-30T19:52:07.302Z,4.93
2022-07-30T19:54:40.654Z,5.95
2022-07-30T19:57:12.275Z,7.47
2022-07-30T19:59:46.489Z,3.30
2022-07-30T20:02:35.585Z,5.25
2022-07-30T20:05:06.109Z,3.10
2022-07-30T20:07:39.426Z,9.20
2022-07-30T20:10:10.597Z,5.20
2022-07-30T20:12:42.116Z,5.05
2022-07-30T20:18:03.201Z,3.95
2022-07-30T20:20:34.679Z,3.47
2022-07-30T20:23:02.609Z,3.55
2022-07-30T20:25:37.252Z,6.03
2022-07-30T20:28:18.531Z,4.03
2022-07-30T20:30:46.430Z,2.95
2022-07-30T20:33:16.613Z,4.25
2022-07-30T20:35:54.943Z,4.03
2022-07-30T20:38:22.965Z,5.38
2022-07-30T20:40:53.549Z,5.60
2022-07-30T20:43:22.835Z,3.67
2022-07-30T20:45:55.685Z,4.97
2022-07-30T20:48:31.029Z,4.32
2022-07-30T20:50:59.013Z,5.65
2022-07-30T20:53:33.671Z,5.75
2022-07-30T20:56:06.384Z,6.78
2022-07-30T20:58:36.003Z,5.97
2022-07-30T21:01:04.893Z,4.28
2022-07-30T21:03:34.622Z,4.45
2022-07-30T21:06:04.027Z,5.43
2022-07-30T21:08:33.597Z,3.78
2022-07-30T21:11:01.486Z,4.22
2022-07-30T21:13:29.447Z,5.18
2022-07-30T21:16:01.944Z,4.00
2022-07-30T21:18:31.673Z,3.60
2022-07-30T21:21:05.492Z,5.88
2022-07-30T21:23:33.929Z,4.68
2022-07-30T21:26:05.946Z,4.22
2022-07-30T21:28:38.852Z,7.63
2022-07-30T21:31:08.739Z,4.50
2022-07-30T21:33:39.652Z,4.18
2022-07-30T21:36:10.659Z,5.40
2022-07-30T21:38:42.517Z,4.22
2022-07-30T21:41:14.058Z,4.60
2022-07-30T21:43:43.809Z,3.05
2022-07-30T21:46:12.906Z,6.18
2022-07-30T21:48:41.318Z,4.38
2022-07-30T21:51:11.553Z,2.60
2022-07-30T21:53:45.059Z,4.97
2022-07-30T21:56:15.954Z,3.65
2022-07-30T21:58:45.280Z,5.15
2022-07-30T22:01:16.998Z,5.72
2022-07-30T22:04:01.502Z,3.83
2022-07-30T22:06:37.954Z,3.25
2022-07-30T22:09:18.310Z,5.82
2022-07-30T22:11:54.840Z,5.05
2022-07-30T22:14:23.359Z,4.38
2022-07-30T22:16:53.581Z,3.88
2022-07-30T22:19:22.559Z,4.65
2022-07-30T22:21:52.176Z,8.25
2022-07-30T22:24:29.187Z,4.45
2022-07-30T22:27:11.904Z,3.60
2022-07-30T22:29:43.388Z,5.63
2022-07-30T22:32:11.724Z,4.85
2022-07-30T22:34:39.751Z,3.20
2022-07-30T22:37:09.254Z,4.95
2022-07-30T22:39:50.713Z,4.10
2022-07-30T22:42:20.981Z,4.70
2022-07-30T22:44:52.784Z,6.35
2022-07-30T22:47:50.650Z,3.60
2022-07-30T22:50:09.779Z,5.57
2022-07-30T22:52:50.127Z,4.43
2022-07-30T22:55:25.926Z,3.70
2022-07-30T22:57:54.430Z,6.05
2022-07-30T23:00:28.132Z,5.45
2022-07-30T23:02:57.096Z,3.90
2022-07-30T23:05:25.683Z,4.15
2022-07-30T23:07:55.868Z,6.15
2022-07-30T23:10:24.848Z,6.28
2022-07-30T23:12:17.102Z,5.50
2022-07-30T23:12:55.704Z,5.50
2022-07-30T23:15:24.593Z,4.35
2022-07-30T23:17:53.263Z,4.70
2022-07-30T23:20:22.111Z,6.05
2022-07-30T23:22:50.451Z,5.18
2022-07-30T23:25:19.753Z,4.10
2022-07-30T23:27:47.944Z,4.78
2022-07-30T23:30:16.432Z,3.15
2022-07-30T23:32:44.349Z,4.25
2022-07-30T23:35:12.232Z,4.03
2022-07-30T23:37:48.521Z,4.32
2022-07-30T23:40:19.912Z,3.22
2022-07-30T23:42:50.251Z,5.38
2022-07-30T23:45:18.313Z,4.13
2022-07-30T23:48:00.800Z,2.80
2022-07-30T23:50:30.359Z,3.30
2022-07-30T23:52:58.307Z,3.75
2022-07-30T23:55:28.317Z,3.38
2022-07-30T23:57:56.297Z,4.93
